sensor_id;sensor_type;location;lat;lon;timestamp;temperature;humidity
20158;DHT22;10239;56.820;24.416;2023-03-14T00:01:18;6.10;99.90
20158;DHT22;10239;56.820;24.416;2023-03-14T00:03:48;6.10;99.90
20158;DHT22;10239;56.820;24.416;2023-03-14T00:06:16;6.10;99.90
20158;DHT22;10239;56.820;24.416;2023-03-14T00:08:44;6.10;99.90
20158;DHT22;10239;56.820;24.416;2023-03-14T00:11:18;6.20;99.90
20158;DHT22;10239;56.820;24.416;2023-03-14T00:13:50;6.20;99.90
20158;DHT22;10239;56.820;24.416;2023-03-14T00:16:18;6.20;99.90
20158;DHT22;10239;56.820;24.416;2023-03-14T00:18:47;6.30;99.90
20158;DHT22;10239;56.820;24.416;2023-03-14T00:21:15;6.30;99.90
20158;DHT22;10239;56.820;24.416;2023-03-14T00:23:42;6.30;99.90
20158;DHT22;10239;56.820;24.416;2023-03-14T00:26:12;6.30;99.90
20158;DHT22;10239;56.820;24.416;2023-03-14T00:28:41;6.30;99.90
20158;DHT22;10239;56.820;24.416;2023-03-14T00:31:12;6.30;99.90
20158;DHT22;10239;56.820;24.416;2023-03-14T00:33:41;6.30;99.90
20158;DHT22;10239;56.820;24.416;2023-03-14T00:36:16;6.40;99.90
20158;DHT22;10239;56.820;24.416;2023-03-14T00:38:46;6.40;99.90
20158;DHT22;10239;56.820;24.416;2023-03-14T00:41:19;6.40;99.90
20158;DHT22;10239;56.820;24.416;2023-03-14T00:43:47;6.40;99.90
20158;DHT22;10239;56.820;24.416;2023-03-14T00:46:15;6.30;99.90
20158;DHT22;10239;56.820;24.416;2023-03-14T00:48:45;6.30;99.90
20158;DHT22;10239;56.820;24.416;2023-03-14T00:51:13;6.20;99.90
20158;DHT22;10239;56.820;24.416;2023-03-14T00:53:44;6.20;99.90
20158;DHT22;10239;56.820;24.416;2023-03-14T00:56:13;6.20;99.90
20158;DHT22;10239;56.820;24.416;2023-03-14T00:58:40;6.20;99.90
20158;DHT22;10239;56.820;24.416;2023-03-14T01:01:12;6.20;99.90
20158;DHT22;10239;56.820;24.416;2023-03-14T01:03:40;6.30;99.90
20158;DHT22;10239;56.820;24.416;2023-03-14T01:06:10;6.30;99.90
20158;DHT22;10239;56.820;24.416;2023-03-14T01:08:38;6.30;99.90
20158;DHT22;10239;56.820;24.416;2023-03-14T01:11:11;6.30;99.90
20158;DHT22;10239;56.820;24.416;2023-03-14T01:13:39;6.40;99.90
20158;DHT22;10239;56.820;24.416;2023-03-14T01:16:09;6.40;99.90
20158;DHT22;10239;56.820;24.416;2023-03-14T01:18:38;6.40;99.90
20158;DHT22;10239;56.820;24.416;2023-03-14T01:21:21;6.40;99.90
20158;DHT22;10239;56.820;24.416;2023-03-14T01:23:50;6.50;99.90
20158;DHT22;10239;56.820;24.416;2023-03-14T01:26:21;6.40;99.90
20158;DHT22;10239;56.820;24.416;2023-03-14T01:28:51;6.30;99.90
20158;DHT22;10239;56.820;24.416;2023-03-14T01:31:20;6.40;99.90
20158;DHT22;10239;56.820;24.416;2023-03-14T01:33:48;6.60;99.90
20158;DHT22;10239;56.820;24.416;2023-03-14T01:36:16;6.60;99.90
20158;DHT22;10239;56.820;24.416;2023-03-14T01:38:44;6.50;99.90
20158;DHT22;10239;56.820;24.416;2023-03-14T01:41:26;6.50;99.90
20158;DHT22;10239;56.820;24.416;2023-03-14T01:43:56;6.50;99.90
20158;DHT22;10239;56.820;24.416;2023-03-14T01:52:12;6.60;99.90
20158;DHT22;10239;56.820;24.416;2023-03-14T01:54:43;6.70;99.90
20158;DHT22;10239;56.820;24.416;2023-03-14T01:57:22;6.70;99.90
20158;DHT22;10239;56.820;24.416;2023-03-14T02:00:02;6.70;99.90
20158;DHT22;10239;56.820;24.416;2023-03-14T02:02:45;6.70;99.90
20158;DHT22;10239;56.820;24.416;2023-03-14T02:05:19;6.80;99.90
20158;DHT22;10239;56.820;24.416;2023-03-14T02:07:56;6.70;99.90
20158;DHT22;10239;56.820;24.416;2023-03-14T02:10:37;6.80;99.90
20158;DHT22;10239;56.820;24.416;2023-03-14T02:13:07;6.80;99.90
20158;DHT22;10239;56.820;24.416;2023-03-14T02:15:53;6.70;99.90
20158;DHT22;10239;56.820;24.416;2023-03-14T02:18:40;6.80;99.90
20158;DHT22;10239;56.820;24.416;2023-03-14T02:24:39;6.80;99.90
20158;DHT22;10239;56.820;24.416;2023-03-14T02:27:17;6.90;99.90
20158;DHT22;10239;56.820;24.416;2023-03-14T02:29:54;6.80;99.90
20158;DHT22;10239;56.820;24.416;2023-03-14T02:32:24;6.80;99.90
20158;DHT22;10239;56.820;24.416;2023-03-14T02:34:55;6.90;99.90
20158;DHT22;10239;56.820;24.416;2023-03-14T02:37:33;6.90;99.90
20158;DHT22;10239;56.820;24.416;2023-03-14T02:40:03;6.90;99.90
20158;DHT22;10239;56.820;24.416;2023-03-14T02:42:33;7.00;99.90
20158;DHT22;10239;56.820;24.416;2023-03-14T02:47:43;7.00;99.90
20158;DHT22;10239;56.820;24.416;2023-03-14T02:50:23;7.00;99.90
20158;DHT22;10239;56.820;24.416;2023-03-14T02:52:53;7.00;99.90
20158;DHT22;10239;56.820;24.416;2023-03-14T02:55:25;7.00;99.90
20158;DHT22;10239;56.820;24.416;2023-03-14T02:57:57;7.10;99.90
20158;DHT22;10239;56.820;24.416;2023-03-14T03:00:26;7.10;99.90
20158;DHT22;10239;56.820;24.416;2023-03-14T03:02:53;7.10;99.90
20158;DHT22;10239;56.820;24.416;2023-03-14T03:05:21;7.10;99.90
20158;DHT22;10239;56.820;24.416;2023-03-14T03:07:48;7.20;99.90
20158;DHT22;10239;56.820;24.416;2023-03-14T03:10:17;7.10;99.90
20158;DHT22;10239;56.820;24.416;2023-03-14T03:12:44;7.10;99.90
20158;DHT22;10239;56.820;24.416;2023-03-14T03:15:12;7.10;99.90
20158;DHT22;10239;56.820;24.416;2023-03-14T03:17:40;7.20;99.90
20158;DHT22;10239;56.820;24.416;2023-03-14T03:20:08;7.30;99.90
20158;DHT22;10239;56.820;24.416;2023-03-14T03:22:38;7.30;99.90
20158;DHT22;10239;56.820;24.416;2023-03-14T03:25:07;7.40;99.90
20158;DHT22;10239;56.820;24.416;2023-03-14T03:27:36;7.30;99.90
20158;DHT22;10239;56.820;24.416;2023-03-14T03:30:07;7.30;99.90
20158;DHT22;10239;56.820;24.416;2023-03-14T03:32:35;7.20;99.90
20158;DHT22;10239;56.820;24.416;2023-03-14T03:35:05;7.20;99.90
20158;DHT22;10239;56.820;24.416;2023-03-14T03:37:36;7.30;99.90
20158;DHT22;10239;56.820;24.416;2023-03-14T03:40:06;7.20;99.90
20158;DHT22;10239;56.820;24.416;2023-03-14T03:42:35;7.20;99.90
20158;DHT22;10239;56.820;24.416;2023-03-14T03:45:06;7.30;99.90
20158;DHT22;10239;56.820;24.416;2023-03-14T03:47:38;7.30;99.90
20158;DHT22;10239;56.820;24.416;2023-03-14T03:50:07;7.30;99.90
20158;DHT22;10239;56.820;24.416;2023-03-14T03:52:34;7.30;99.90
20158;DHT22;10239;56.820;24.416;2023-03-14T03:55:02;7.30;99.90
20158;DHT22;10239;56.820;24.416;2023-03-14T03:57:30;7.40;99.90
20158;DHT22;10239;56.820;24.416;2023-03-14T03:59:57;7.50;99.90
20158;DHT22;10239;56.820;24.416;2023-03-14T04:02:40;7.40;99.90
20158;DHT22;10239;56.820;24.416;2023-03-14T04:05:11;7.50;99.90
20158;DHT22;10239;56.820;24.416;2023-03-14T04:07:44;7.60;99.90
20158;DHT22;10239;56.820;24.416;2023-03-14T04:10:16;7.60;99.90
20158;DHT22;10239;56.820;24.416;2023-03-14T04:12:58;7.40;99.90
20158;DHT22;10239;56.820;24.416;2023-03-14T04:15:28;7.40;99.90
20158;DHT22;10239;56.820;24.416;2023-03-14T04:17:59;7.40;99.90
20158;DHT22;10239;56.820;24.416;2023-03-14T04:20:27;7.40;99.90
20158;DHT22;10239;56.820;24.416;2023-03-14T04:22:54;7.40;99.90
20158;DHT22;10239;56.820;24.416;2023-03-14T04:25:22;7.60;99.90
20158;DHT22;10239;56.820;24.416;2023-03-14T04:27:54;7.60;99.90
20158;DHT22;10239;56.820;24.416;2023-03-14T04:30:24;7.60;99.90
20158;DHT22;10239;56.820;24.416;2023-03-14T04:32:58;7.60;99.90
20158;DHT22;10239;56.820;24.416;2023-03-14T04:35:29;7.60;99.90
20158;DHT22;10239;56.820;24.416;2023-03-14T04:38:01;7.60;99.90
20158;DHT22;10239;56.820;24.416;2023-03-14T04:40:31;7.60;99.90
20158;DHT22;10239;56.820;24.416;2023-03-14T04:43:03;7.60;99.90
20158;DHT22;10239;56.820;24.416;2023-03-14T04:45:31;7.60;99.90
20158;DHT22;10239;56.820;24.416;2023-03-14T04:48:01;7.60;99.90
20158;DHT22;10239;56.820;24.416;2023-03-14T04:50:29;7.70;99.90
20158;DHT22;10239;56.820;24.416;2023-03-14T04:52:57;7.70;99.90
20158;DHT22;10239;56.820;24.416;2023-03-14T04:55:25;7.70;99.90
20158;DHT22;10239;56.820;24.416;2023-03-14T04:57:54;7.70;99.90
20158;DHT22;10239;56.820;24.416;2023-03-14T05:00:23;7.70;99.90
20158;DHT22;10239;56.820;24.416;2023-03-14T05:03:10;7.70;99.90
20158;DHT22;10239;56.820;24.416;2023-03-14T05:06:16;7.70;99.90
20158;DHT22;10239;56.820;24.416;2023-03-14T05:09:03;7.70;99.90
20158;DHT22;10239;56.820;24.416;2023-03-14T05:12:01;7.70;99.90
20158;DHT22;10239;56.820;24.416;2023-03-14T05:14:46;7.70;99.90
20158;DHT22;10239;56.820;24.416;2023-03-14T05:17:34;7.60;99.90
20158;DHT22;10239;56.820;24.416;2023-03-14T05:20:18;7.60;99.90
20158;DHT22;10239;56.820;24.416;2023-03-14T05:23:06;7.60;99.90
20158;DHT22;10239;56.820;24.416;2023-03-14T05:25:49;7.70;99.90
20158;DHT22;10239;56.820;24.416;2023-03-14T05:28:39;7.70;99.90
20158;DHT22;10239;56.820;24.416;2023-03-14T05:31:25;7.70;99.90
20158;DHT22;10239;56.820;24.416;2023-03-14T05:34:14;7.60;99.90
20158;DHT22;10239;56.820;24.416;2023-03-14T05:37:00;7.70;99.90
20158;DHT22;10239;56.820;24.416;2023-03-14T05:39:47;7.70;99.90
20158;DHT22;10239;56.820;24.416;2023-03-14T05:42:33;7.70;99.90
20158;DHT22;10239;56.820;24.416;2023-03-14T05:45:34;7.60;99.90
20158;DHT22;10239;56.820;24.416;2023-03-14T05:48:35;7.60;99.90
20158;DHT22;10239;56.820;24.416;2023-03-14T05:51:22;7.70;99.90
20158;DHT22;10239;56.820;24.416;2023-03-14T05:54:17;7.70;99.90
20158;DHT22;10239;56.820;24.416;2023-03-14T05:57:23;7.70;99.90
20158;DHT22;10239;56.820;24.416;2023-03-14T06:00:22;7.50;99.90
20158;DHT22;10239;56.820;24.416;2023-03-14T06:03:04;7.70;99.90
20158;DHT22;10239;56.820;24.416;2023-03-14T06:05:40;7.70;99.90
20158;DHT22;10239;56.820;24.416;2023-03-14T06:08:09;7.60;99.90
20158;DHT22;10239;56.820;24.416;2023-03-14T06:10:44;7.40;99.90
20158;DHT22;10239;56.820;24.416;2023-03-14T06:16:20;7.70;99.90
20158;DHT22;10239;56.820;24.416;2023-03-14T06:18:52;7.70;99.90
20158;DHT22;10239;56.820;24.416;2023-03-14T06:21:22;7.70;99.90
20158;DHT22;10239;56.820;24.416;2023-03-14T06:23:49;7.60;99.90
20158;DHT22;10239;56.820;24.416;2023-03-14T06:26:17;7.70;99.90
20158;DHT22;10239;56.820;24.416;2023-03-14T06:28:45;7.70;99.90
20158;DHT22;10239;56.820;24.416;2023-03-14T06:31:13;7.70;99.90
20158;DHT22;10239;56.820;24.416;2023-03-14T06:33:50;7.70;99.90
20158;DHT22;10239;56.820;24.416;2023-03-14T06:36:18;7.70;99.90
20158;DHT22;10239;56.820;24.416;2023-03-14T06:38:47;7.70;99.90
20158;DHT22;10239;56.820;24.416;2023-03-14T06:41:14;7.70;99.90
20158;DHT22;10239;56.820;24.416;2023-03-14T06:43:43;7.70;99.90
20158;DHT22;10239;56.820;24.416;2023-03-14T06:46:12;7.70;99.90
20158;DHT22;10239;56.820;24.416;2023-03-14T06:48:40;7.70;99.90
20158;DHT22;10239;56.820;24.416;2023-03-14T06:51:09;7.70;99.90
20158;DHT22;10239;56.820;24.416;2023-03-14T06:53:39;7.60;99.90
20158;DHT22;10239;56.820;24.416;2023-03-14T06:56:07;7.50;99.90
20158;DHT22;10239;56.820;24.416;2023-03-14T06:58:35;7.70;99.90
20158;DHT22;10239;56.820;24.416;2023-03-14T07:01:05;7.50;99.90
20158;DHT22;10239;56.820;24.416;2023-03-14T07:03:39;7.70;99.90
20158;DHT22;10239;56.820;24.416;2023-03-14T07:06:06;7.70;99.90
20158;DHT22;10239;56.820;24.416;2023-03-14T07:08:34;7.70;99.90
20158;DHT22;10239;56.820;24.416;2023-03-14T07:11:02;7.70;99.90
20158;DHT22;10239;56.820;24.416;2023-03-14T07:13:30;7.90;99.90
20158;DHT22;10239;56.820;24.416;2023-03-14T07:16:05;7.90;99.90
20158;DHT22;10239;56.820;24.416;2023-03-14T07:18:32;8.10;99.90
20158;DHT22;10239;56.820;24.416;2023-03-14T07:21:04;8.10;99.90
20158;DHT22;10239;56.820;24.416;2023-03-14T07:23:32;7.90;99.90
20158;DHT22;10239;56.820;24.416;2023-03-14T07:26:00;7.90;99.90
20158;DHT22;10239;56.820;24.416;2023-03-14T07:28:30;8.00;99.90
20158;DHT22;10239;56.820;24.416;2023-03-14T07:31:05;8.00;99.90
20158;DHT22;10239;56.820;24.416;2023-03-14T07:33:34;8.10;99.90
20158;DHT22;10239;56.820;24.416;2023-03-14T07:36:02;8.10;99.90
20158;DHT22;10239;56.820;24.416;2023-03-14T07:38:31;8.10;99.90
20158;DHT22;10239;56.820;24.416;2023-03-14T07:41:17;8.20;99.90
20158;DHT22;10239;56.820;24.416;2023-03-14T07:44:03;8.50;99.90
20158;DHT22;10239;56.820;24.416;2023-03-14T07:46:31;8.60;99.90
20158;DHT22;10239;56.820;24.416;2023-03-14T07:48:59;8.20;99.90
20158;DHT22;10239;56.820;24.416;2023-03-14T07:51:26;8.50;99.90
20158;DHT22;10239;56.820;24.416;2023-03-14T07:53:54;8.40;99.90
20158;DHT22;10239;56.820;24.416;2023-03-14T07:56:21;8.30;99.90
20158;DHT22;10239;56.820;24.416;2023-03-14T07:58:49;8.40;99.90
20158;DHT22;10239;56.820;24.416;2023-03-14T08:01:16;8.50;99.90
20158;DHT22;10239;56.820;24.416;2023-03-14T08:03:44;8.50;99.90
20158;DHT22;10239;56.820;24.416;2023-03-14T08:06:11;8.30;99.90
20158;DHT22;10239;56.820;24.416;2023-03-14T08:08:38;8.30;99.90
20158;DHT22;10239;56.820;24.416;2023-03-14T08:11:07;8.40;99.90
20158;DHT22;10239;56.820;24.416;2023-03-14T08:13:38;8.60;99.90
20158;DHT22;10239;56.820;24.416;2023-03-14T08:16:06;8.60;99.90
20158;DHT22;10239;56.820;24.416;2023-03-14T08:18:34;8.60;99.90
20158;DHT22;10239;56.820;24.416;2023-03-14T08:21:01;8.80;99.90
20158;DHT22;10239;56.820;24.416;2023-03-14T08:23:29;8.90;99.90
20158;DHT22;10239;56.820;24.416;2023-03-14T08:25:56;8.70;99.90
20158;DHT22;10239;56.820;24.416;2023-03-14T08:28:23;8.60;99.90
20158;DHT22;10239;56.820;24.416;2023-03-14T08:30:51;8.70;99.90
20158;DHT22;10239;56.820;24.416;2023-03-14T08:33:19;8.80;99.90
20158;DHT22;10239;56.820;24.416;2023-03-14T08:35:46;8.70;99.90
20158;DHT22;10239;56.820;24.416;2023-03-14T08:38:13;8.90;99.90
20158;DHT22;10239;56.820;24.416;2023-03-14T08:40:41;8.80;99.90
20158;DHT22;10239;56.820;24.416;2023-03-14T08:43:08;8.90;99.90
20158;DHT22;10239;56.820;24.416;2023-03-14T08:45:36;8.90;99.90
20158;DHT22;10239;56.820;24.416;2023-03-14T08:48:04;9.10;99.90
20158;DHT22;10239;56.820;24.416;2023-03-14T08:50:31;9.40;99.90
20158;DHT22;10239;56.820;24.416;2023-03-14T08:52:58;9.30;99.90
20158;DHT22;10239;56.820;24.416;2023-03-14T08:55:27;9.40;99.90
20158;DHT22;10239;56.820;24.416;2023-03-14T08:57:55;9.50;99.90
20158;DHT22;10239;56.820;24.416;2023-03-14T09:00:22;9.60;99.90
20158;DHT22;10239;56.820;24.416;2023-03-14T09:02:50;9.50;99.90
20158;DHT22;10239;56.820;24.416;2023-03-14T09:05:18;9.20;99.90
20158;DHT22;10239;56.820;24.416;2023-03-14T09:07:45;9.30;99.90
20158;DHT22;10239;56.820;24.416;2023-03-14T09:10:13;9.20;99.90
20158;DHT22;10239;56.820;24.416;2023-03-14T09:12:41;9.60;99.90
20158;DHT22;10239;56.820;24.416;2023-03-14T09:15:09;9.60;99.90
20158;DHT22;10239;56.820;24.416;2023-03-14T09:17:36;9.70;99.90
20158;DHT22;10239;56.820;24.416;2023-03-14T09:20:06;9.40;99.90
20158;DHT22;10239;56.820;24.416;2023-03-14T09:22:34;9.40;99.90
20158;DHT22;10239;56.820;24.416;2023-03-14T09:25:03;9.50;99.90
20158;DHT22;10239;56.820;24.416;2023-03-14T09:27:31;9.70;99.90
20158;DHT22;10239;56.820;24.416;2023-03-14T09:29:58;9.80;99.90
20158;DHT22;10239;56.820;24.416;2023-03-14T09:32:26;9.90;99.90
20158;DHT22;10239;56.820;24.416;2023-03-14T09:34:53;10.20;99.90
20158;DHT22;10239;56.820;24.416;2023-03-14T09:37:21;10.10;99.90
20158;DHT22;10239;56.820;24.416;2023-03-14T09:39:48;9.90;99.90
20158;DHT22;10239;56.820;24.416;2023-03-14T09:42:22;9.90;99.90
20158;DHT22;10239;56.820;24.416;2023-03-14T09:44:59;9.90;99.90
20158;DHT22;10239;56.820;24.416;2023-03-14T09:47:28;10.30;99.90
20158;DHT22;10239;56.820;24.416;2023-03-14T09:49:55;10.20;99.90
20158;DHT22;10239;56.820;24.416;2023-03-14T09:54:58;10.50;99.90
20158;DHT22;10239;56.820;24.416;2023-03-14T09:57:27;10.60;99.90
20158;DHT22;10239;56.820;24.416;2023-03-14T10:00:00;10.80;99.90
20158;DHT22;10239;56.820;24.416;2023-03-14T10:02:35;10.70;99.90
20158;DHT22;10239;56.820;24.416;2023-03-14T10:05:14;10.90;99.90
20158;DHT22;10239;56.820;24.416;2023-03-14T10:07:42;10.80;99.90
20158;DHT22;10239;56.820;24.416;2023-03-14T10:10:13;10.70;99.90
20158;DHT22;10239;56.820;24.416;2023-03-14T10:12:46;10.90;99.90
20158;DHT22;10239;56.820;24.416;2023-03-14T10:15:27;10.60;99.90
20158;DHT22;10239;56.820;24.416;2023-03-14T10:17:59;10.40;99.90
20158;DHT22;10239;56.820;24.416;2023-03-14T10:20:38;10.30;99.90
20158;DHT22;10239;56.820;24.416;2023-03-14T10:25:59;10.70;99.90
20158;DHT22;10239;56.820;24.416;2023-03-14T10:28:30;10.70;99.90
20158;DHT22;10239;56.820;24.416;2023-03-14T10:30:58;10.60;99.90
20158;DHT22;10239;56.820;24.416;2023-03-14T10:33:32;10.50;99.90
20158;DHT22;10239;56.820;24.416;2023-03-14T10:36:05;10.70;99.90
20158;DHT22;10239;56.820;24.416;2023-03-14T10:38:36;11.00;99.90
20158;DHT22;10239;56.820;24.416;2023-03-14T10:41:17;11.30;99.90
20158;DHT22;10239;56.820;24.416;2023-03-14T10:43:45;11.30;99.90
20158;DHT22;10239;56.820;24.416;2023-03-14T10:46:18;11.80;99.90
20158;DHT22;10239;56.820;24.416;2023-03-14T10:49:05;11.50;99.90
20158;DHT22;10239;56.820;24.416;2023-03-14T10:51:34;11.40;99.90
20158;DHT22;10239;56.820;24.416;2023-03-14T10:54:21;11.40;99.90
20158;DHT22;10239;56.820;24.416;2023-03-14T10:57:00;11.20;99.90
20158;DHT22;10239;56.820;24.416;2023-03-14T10:59:36;11.20;99.90
20158;DHT22;10239;56.820;24.416;2023-03-14T11:02:26;11.00;99.90
20158;DHT22;10239;56.820;24.416;2023-03-14T11:07:43;11.20;99.90
20158;DHT22;10239;56.820;24.416;2023-03-14T11:24:26;10.30;99.90
20158;DHT22;10239;56.820;24.416;2023-03-14T11:27:03;10.20;99.90
20158;DHT22;10239;56.820;24.416;2023-03-14T11:35:30;10.50;99.90
20158;DHT22;10239;56.820;24.416;2023-03-14T11:41:05;10.80;99.90
20158;DHT22;10239;56.820;24.416;2023-03-14T11:43:39;10.50;99.90
20158;DHT22;10239;56.820;24.416;2023-03-14T11:48:58;10.00;99.90
20158;DHT22;10239;56.820;24.416;2023-03-14T11:51:39;10.30;99.90
20158;DHT22;10239;56.820;24.416;2023-03-14T11:54:48;10.20;99.90
20158;DHT22;10239;56.820;24.416;2023-03-14T11:57:19;10.50;99.90
20158;DHT22;10239;56.820;24.416;2023-03-14T12:05:43;10.30;99.90
20158;DHT22;10239;56.820;24.416;2023-03-14T12:08:43;10.30;99.90
20158;DHT22;10239;56.820;24.416;2023-03-14T12:11:32;10.30;99.90
20158;DHT22;10239;56.820;24.416;2023-03-14T12:14:01;10.20;99.90
20158;DHT22;10239;56.820;24.416;2023-03-14T12:16:37;10.00;99.90
20158;DHT22;10239;56.820;24.416;2023-03-14T12:24:35;9.80;99.90
20158;DHT22;10239;56.820;24.416;2023-03-14T12:27:05;9.70;99.90
20158;DHT22;10239;56.820;24.416;2023-03-14T12:29:57;9.80;99.90
20158;DHT22;10239;56.820;24.416;2023-03-14T12:32:29;9.70;99.90
20158;DHT22;10239;56.820;24.416;2023-03-14T12:35:32;9.70;99.90
20158;DHT22;10239;56.820;24.416;2023-03-14T12:37:55;9.40;99.90
20158;DHT22;10239;56.820;24.416;2023-03-14T12:40:33;9.30;99.90
20158;DHT22;10239;56.820;24.416;2023-03-14T12:43:20;9.40;99.90
20158;DHT22;10239;56.820;24.416;2023-03-14T12:46:09;9.50;99.90
20158;DHT22;10239;56.820;24.416;2023-03-14T12:48:43;9.40;99.90
20158;DHT22;10239;56.820;24.416;2023-03-14T12:53:45;9.20;99.90
20158;DHT22;10239;56.820;24.416;2023-03-14T12:56:45;9.40;99.90
20158;DHT22;10239;56.820;24.416;2023-03-14T12:59:38;8.90;99.90
20158;DHT22;10239;56.820;24.416;2023-03-14T13:05:12;8.70;99.90
20158;DHT22;10239;56.820;24.416;2023-03-14T13:15:39;8.40;99.90
20158;DHT22;10239;56.820;24.416;2023-03-14T13:21:35;8.50;99.90
20158;DHT22;10239;56.820;24.416;2023-03-14T13:24:38;8.50;99.90
20158;DHT22;10239;56.820;24.416;2023-03-14T13:27:19;8.60;99.90
20158;DHT22;10239;56.820;24.416;2023-03-14T13:29:51;8.70;99.90
20158;DHT22;10239;56.820;24.416;2023-03-14T13:32:22;8.80;99.90
20158;DHT22;10239;56.820;24.416;2023-03-14T13:34:57;8.70;99.90
20158;DHT22;10239;56.820;24.416;2023-03-14T13:37:26;8.20;99.90
20158;DHT22;10239;56.820;24.416;2023-03-14T13:39:55;8.40;99.90
20158;DHT22;10239;56.820;24.416;2023-03-14T13:42:28;8.50;99.90
20158;DHT22;10239;56.820;24.416;2023-03-14T13:44:57;8.70;99.90
20158;DHT22;10239;56.820;24.416;2023-03-14T13:47:26;8.50;99.90
20158;DHT22;10239;56.820;24.416;2023-03-14T13:49:54;8.50;99.90
20158;DHT22;10239;56.820;24.416;2023-03-14T13:52:31;8.50;99.90
20158;DHT22;10239;56.820;24.416;2023-03-14T13:55:13;8.60;99.90
20158;DHT22;10239;56.820;24.416;2023-03-14T13:57:45;8.40;99.90
20158;DHT22;10239;56.820;24.416;2023-03-14T14:00:21;8.50;99.90
20158;DHT22;10239;56.820;24.416;2023-03-14T14:02:55;8.30;99.90
20158;DHT22;10239;56.820;24.416;2023-03-14T14:05:29;8.30;99.90
20158;DHT22;10239;56.820;24.416;2023-03-14T14:07:58;8.00;99.90
20158;DHT22;10239;56.820;24.416;2023-03-14T14:10:28;8.10;99.90
20158;DHT22;10239;56.820;24.416;2023-03-14T14:13:13;8.20;99.90
20158;DHT22;10239;56.820;24.416;2023-03-14T14:16:45;8.00;99.90
20158;DHT22;10239;56.820;24.416;2023-03-14T14:19:40;8.20;99.90
20158;DHT22;10239;56.820;24.416;2023-03-14T14:22:29;8.30;99.90
20158;DHT22;10239;56.820;24.416;2023-03-14T14:25:13;8.10;99.90
20158;DHT22;10239;56.820;24.416;2023-03-14T14:27:48;8.10;99.90
20158;DHT22;10239;56.820;24.416;2023-03-14T14:30:30;8.00;99.90
20158;DHT22;10239;56.820;24.416;2023-03-14T14:33:19;8.10;99.90
20158;DHT22;10239;56.820;24.416;2023-03-14T14:36:03;8.00;99.90
20158;DHT22;10239;56.820;24.416;2023-03-14T14:38:35;8.00;99.90
20158;DHT22;10239;56.820;24.416;2023-03-14T14:41:04;7.60;99.90
20158;DHT22;10239;56.820;24.416;2023-03-14T14:43:36;7.70;99.90
20158;DHT22;10239;56.820;24.416;2023-03-14T14:46:07;7.70;99.90
20158;DHT22;10239;56.820;24.416;2023-03-14T14:48:38;7.80;99.90
20158;DHT22;10239;56.820;24.416;2023-03-14T14:51:07;7.60;99.90
20158;DHT22;10239;56.820;24.416;2023-03-14T14:53:40;7.50;99.90
20158;DHT22;10239;56.820;24.416;2023-03-14T14:56:16;7.40;99.90
20158;DHT22;10239;56.820;24.416;2023-03-14T14:58:46;7.70;99.90
20158;DHT22;10239;56.820;24.416;2023-03-14T15:01:17;7.60;99.90
20158;DHT22;10239;56.820;24.416;2023-03-14T15:03:48;7.60;99.90
20158;DHT22;10239;56.820;24.416;2023-03-14T15:06:17;7.70;99.90
20158;DHT22;10239;56.820;24.416;2023-03-14T15:08:47;7.80;99.90
20158;DHT22;10239;56.820;24.416;2023-03-14T15:11:24;7.80;99.90
20158;DHT22;10239;56.820;24.416;2023-03-14T15:13:52;7.70;99.90
20158;DHT22;10239;56.820;24.416;2023-03-14T15:16:23;7.60;99.90
20158;DHT22;10239;56.820;24.416;2023-03-14T15:18:57;7.70;99.90
20158;DHT22;10239;56.820;24.416;2023-03-14T15:21:27;7.90;99.90
20158;DHT22;10239;56.820;24.416;2023-03-14T15:23:55;7.60;99.90
20158;DHT22;10239;56.820;24.416;2023-03-14T15:26:25;7.70;99.90
20158;DHT22;10239;56.820;24.416;2023-03-14T15:28:53;7.50;99.90
20158;DHT22;10239;56.820;24.416;2023-03-14T15:31:21;7.50;99.90
20158;DHT22;10239;56.820;24.416;2023-03-14T15:33:49;7.50;99.90
20158;DHT22;10239;56.820;24.416;2023-03-14T15:36:22;7.30;99.90
20158;DHT22;10239;56.820;24.416;2023-03-14T15:38:51;7.20;99.90
20158;DHT22;10239;56.820;24.416;2023-03-14T15:41:20;7.20;99.90
20158;DHT22;10239;56.820;24.416;2023-03-14T15:43:48;7.30;99.90
20158;DHT22;10239;56.820;24.416;2023-03-14T15:46:16;7.20;99.90
20158;DHT22;10239;56.820;24.416;2023-03-14T15:48:45;7.10;99.90
20158;DHT22;10239;56.820;24.416;2023-03-14T15:51:13;7.10;99.90
20158;DHT22;10239;56.820;24.416;2023-03-14T15:53:42;7.10;99.90
20158;DHT22;10239;56.820;24.416;2023-03-14T15:56:20;7.40;99.90
20158;DHT22;10239;56.820;24.416;2023-03-14T15:58:47;7.20;99.90
20158;DHT22;10239;56.820;24.416;2023-03-14T16:01:15;7.40;99.90
20158;DHT22;10239;56.820;24.416;2023-03-14T16:03:44;7.50;99.90
20158;DHT22;10239;56.820;24.416;2023-03-14T16:06:16;7.40;99.90
20158;DHT22;10239;56.820;24.416;2023-03-14T16:08:43;7.40;99.90
20158;DHT22;10239;56.820;24.416;2023-03-14T16:11:12;7.40;99.90
20158;DHT22;10239;56.820;24.416;2023-03-14T16:13:41;7.30;99.90
20158;DHT22;10239;56.820;24.416;2023-03-14T16:16:09;7.20;99.90
20158;DHT22;10239;56.820;24.416;2023-03-14T16:18:39;7.30;99.90
20158;DHT22;10239;56.820;24.416;2023-03-14T16:21:12;7.40;99.90
20158;DHT22;10239;56.820;24.416;2023-03-14T16:23:40;7.30;99.90
20158;DHT22;10239;56.820;24.416;2023-03-14T16:26:10;7.30;99.90
20158;DHT22;10239;56.820;24.416;2023-03-14T16:28:38;7.30;99.90
20158;DHT22;10239;56.820;24.416;2023-03-14T16:31:11;7.40;99.90
20158;DHT22;10239;56.820;24.416;2023-03-14T16:33:39;7.30;99.90
20158;DHT22;10239;56.820;24.416;2023-03-14T16:36:08;7.30;99.90
20158;DHT22;10239;56.820;24.416;2023-03-14T16:38:38;7.40;99.90
20158;DHT22;10239;56.820;24.416;2023-03-14T16:41:17;7.40;99.90
20158;DHT22;10239;56.820;24.416;2023-03-14T16:43:46;7.50;99.90
20158;DHT22;10239;56.820;24.416;2023-03-14T16:46:19;7.50;99.90
20158;DHT22;10239;56.820;24.416;2023-03-14T16:48:49;7.70;99.90
20158;DHT22;10239;56.820;24.416;2023-03-14T16:51:16;7.70;99.90
20158;DHT22;10239;56.820;24.416;2023-03-14T16:53:44;7.60;99.90
20158;DHT22;10239;56.820;24.416;2023-03-14T16:56:12;7.70;99.90
20158;DHT22;10239;56.820;24.416;2023-03-14T16:58:40;7.80;99.90
20158;DHT22;10239;56.820;24.416;2023-03-14T17:01:09;7.80;99.90
20158;DHT22;10239;56.820;24.416;2023-03-14T17:03:39;7.70;99.90
20158;DHT22;10239;56.820;24.416;2023-03-14T17:06:09;7.50;99.90
20158;DHT22;10239;56.820;24.416;2023-03-14T17:08:38;7.60;99.90
20158;DHT22;10239;56.820;24.416;2023-03-14T17:11:05;7.60;99.90
20158;DHT22;10239;56.820;24.416;2023-03-14T17:13:34;7.70;99.90
20158;DHT22;10239;56.820;24.416;2023-03-14T17:16:02;7.50;99.90
20158;DHT22;10239;56.820;24.416;2023-03-14T17:18:30;7.60;99.90
20158;DHT22;10239;56.820;24.416;2023-03-14T17:20:58;7.70;99.90
20158;DHT22;10239;56.820;24.416;2023-03-14T17:23:27;7.60;99.90